sensor_id;sensor_type;location;lat;lon;timestamp;P1;durP1;ratioP1;P2;durP2;ratioP2
20008;SDS011;10165;42.662;23.260;2023-12-14T00:01:54;16.97;;;8.07;;
20008;SDS011;10165;42.662;23.260;2023-12-14T00:04:22;19.07;;;7.97;;
20008;SDS011;10165;42.662;23.260;2023-12-14T00:06:49;19.87;;;9.33;;
20008;SDS011;10165;42.662;23.260;2023-12-14T00:09:16;17.67;;;9.00;;
20008;SDS011;10165;42.662;23.260;2023-12-14T00:11:43;17.13;;;8.87;;
20008;SDS011;10165;42.662;23.260;2023-12-14T00:14:10;30.17;;;10.63;;
20008;SDS011;10165;42.662;23.260;2023-12-14T00:16:38;14.90;;;7.10;;
20008;SDS011;10165;42.662;23.260;2023-12-14T00:19:05;11.43;;;7.30;;
20008;SDS011;10165;42.662;23.260;2023-12-14T00:21:32;13.10;;;5.37;;
20008;SDS011;10165;42.662;23.260;2023-12-14T00:23:59;13.23;;;6.50;;
20008;SDS011;10165;42.662;23.260;2023-12-14T00:26:26;9.03;;;5.77;;
20008;SDS011;10165;42.662;23.260;2023-12-14T00:28:53;16.13;;;6.50;;
20008;SDS011;10165;42.662;23.260;2023-12-14T00:31:27;8.57;;;6.07;;
20008;SDS011;10165;42.662;23.260;2023-12-14T00:33:54;7.10;;;4.47;;
20008;SDS011;10165;42.662;23.260;2023-12-14T00:36:21;8.27;;;5.23;;
20008;SDS011;10165;42.662;23.260;2023-12-14T00:38:48;12.87;;;5.47;;
20008;SDS011;10165;42.662;23.260;2023-12-14T00:41:15;9.50;;;6.27;;
20008;SDS011;10165;42.662;23.260;2023-12-14T00:43:42;7.83;;;4.37;;
20008;SDS011;10165;42.662;23.260;2023-12-14T00:46:09;15.17;;;6.07;;
20008;SDS011;10165;42.662;23.260;2023-12-14T00:48:38;8.73;;;5.40;;
20008;SDS011;10165;42.662;23.260;2023-12-14T00:51:05;8.27;;;4.93;;
20008;SDS011;10165;42.662;23.260;2023-12-14T00:53:32;8.70;;;5.30;;
20008;SDS011;10165;42.662;23.260;2023-12-14T00:55:59;6.60;;;4.57;;
20008;SDS011;10165;42.662;23.260;2023-12-14T00:58:26;9.73;;;5.83;;
20008;SDS011;10165;42.662;23.260;2023-12-14T01:00:53;9.67;;;5.53;;
20008;SDS011;10165;42.662;23.260;2023-12-14T01:03:21;11.50;;;5.40;;
20008;SDS011;10165;42.662;23.260;2023-12-14T01:05:49;14.43;;;8.33;;
20008;SDS011;10165;42.662;23.260;2023-12-14T01:08:16;16.20;;;7.43;;
20008;SDS011;10165;42.662;23.260;2023-12-14T01:10:43;13.03;;;7.33;;
20008;SDS011;10165;42.662;23.260;2023-12-14T01:13:11;16.83;;;8.37;;
20008;SDS011;10165;42.662;23.260;2023-12-14T01:15:38;14.60;;;7.07;;
20008;SDS011;10165;42.662;23.260;2023-12-14T01:18:04;11.93;;;6.03;;
20008;SDS011;10165;42.662;23.260;2023-12-14T01:20:32;13.53;;;6.97;;
20008;SDS011;10165;42.662;23.260;2023-12-14T01:22:58;8.33;;;5.00;;
20008;SDS011;10165;42.662;23.260;2023-12-14T01:25:26;10.10;;;6.07;;
20008;SDS011;10165;42.662;23.260;2023-12-14T01:27:53;11.23;;;5.23;;
20008;SDS011;10165;42.662;23.260;2023-12-14T01:30:20;6.37;;;5.10;;
20008;SDS011;10165;42.662;23.260;2023-12-14T01:32:47;9.33;;;5.43;;
20008;SDS011;10165;42.662;23.260;2023-12-14T01:35:14;11.83;;;6.40;;
20008;SDS011;10165;42.662;23.260;2023-12-14T01:37:41;7.67;;;4.57;;
20008;SDS011;10165;42.662;23.260;2023-12-14T01:40:08;7.37;;;4.73;;
20008;SDS011;10165;42.662;23.260;2023-12-14T01:42:35;9.20;;;4.57;;
20008;SDS011;10165;42.662;23.260;2023-12-14T01:45:03;8.07;;;4.37;;
20008;SDS011;10165;42.662;23.260;2023-12-14T01:47:31;9.13;;;4.30;;
20008;SDS011;10165;42.662;23.260;2023-12-14T01:49:58;5.10;;;3.77;;
20008;SDS011;10165;42.662;23.260;2023-12-14T01:52:25;7.80;;;4.47;;
20008;SDS011;10165;42.662;23.260;2023-12-14T01:54:52;8.00;;;4.37;;
20008;SDS011;10165;42.662;23.260;2023-12-14T01:57:18;7.77;;;5.20;;
20008;SDS011;10165;42.662;23.260;2023-12-14T01:59:45;8.37;;;4.93;;
20008;SDS011;10165;42.662;23.260;2023-12-14T02:02:12;7.50;;;4.43;;
20008;SDS011;10165;42.662;23.260;2023-12-14T02:04:39;7.13;;;4.57;;
20008;SDS011;10165;42.662;23.260;2023-12-14T02:07:06;6.33;;;4.43;;
20008;SDS011;10165;42.662;23.260;2023-12-14T02:09:32;7.77;;;3.70;;
20008;SDS011;10165;42.662;23.260;2023-12-14T02:11:59;6.00;;;4.00;;
20008;SDS011;10165;42.662;23.260;2023-12-14T02:14:26;10.07;;;5.67;;
20008;SDS011;10165;42.662;23.260;2023-12-14T02:16:53;6.17;;;3.80;;
20008;SDS011;10165;42.662;23.260;2023-12-14T02:19:20;10.53;;;4.07;;
20008;SDS011;10165;42.662;23.260;2023-12-14T02:21:46;5.63;;;3.40;;
20008;SDS011;10165;42.662;23.260;2023-12-14T02:24:13;4.00;;;3.10;;
20008;SDS011;10165;42.662;23.260;2023-12-14T02:26:40;5.97;;;3.17;;
20008;SDS011;10165;42.662;23.260;2023-12-14T02:29:07;3.50;;;3.20;;
20008;SDS011;10165;42.662;23.260;2023-12-14T02:31:33;6.13;;;3.73;;
20008;SDS011;10165;42.662;23.260;2023-12-14T02:34:00;4.80;;;3.47;;
20008;SDS011;10165;42.662;23.260;2023-12-14T02:36:27;7.17;;;3.30;;
20008;SDS011;10165;42.662;23.260;2023-12-14T02:38:54;4.13;;;3.17;;
20008;SDS011;10165;42.662;23.260;2023-12-14T02:41:21;6.30;;;3.53;;
20008;SDS011;10165;42.662;23.260;2023-12-14T02:43:48;4.70;;;2.93;;
20008;SDS011;10165;42.662;23.260;2023-12-14T02:46:14;4.50;;;3.03;;
20008;SDS011;10165;42.662;23.260;2023-12-14T02:48:42;7.93;;;3.60;;
20008;SDS011;10165;42.662;23.260;2023-12-14T02:51:13;4.27;;;3.10;;
20008;SDS011;10165;42.662;23.260;2023-12-14T02:53:43;3.13;;;2.63;;
20008;SDS011;10165;42.662;23.260;2023-12-14T02:56:10;5.60;;;3.93;;
20008;SDS011;10165;42.662;23.260;2023-12-14T02:58:37;3.13;;;2.70;;
20008;SDS011;10165;42.662;23.260;2023-12-14T03:01:04;3.33;;;2.93;;
20008;SDS011;10165;42.662;23.260;2023-12-14T03:03:32;3.80;;;2.80;;
20008;SDS011;10165;42.662;23.260;2023-12-14T03:05:58;4.63;;;2.53;;
20008;SDS011;10165;42.662;23.260;2023-12-14T03:08:25;3.70;;;2.90;;
20008;SDS011;10165;42.662;23.260;2023-12-14T03:10:52;4.27;;;2.87;;
20008;SDS011;10165;42.662;23.260;2023-12-14T03:13:18;4.60;;;2.57;;
20008;SDS011;10165;42.662;23.260;2023-12-14T03:15:45;5.50;;;2.77;;
20008;SDS011;10165;42.662;23.260;2023-12-14T03:18:12;4.90;;;2.67;;
20008;SDS011;10165;42.662;23.260;2023-12-14T03:20:40;5.87;;;3.03;;
20008;SDS011;10165;42.662;23.260;2023-12-14T03:23:06;3.60;;;2.63;;
20008;SDS011;10165;42.662;23.260;2023-12-14T03:25:33;6.63;;;3.57;;
20008;SDS011;10165;42.662;23.260;2023-12-14T03:28:00;4.90;;;2.77;;
20008;SDS011;10165;42.662;23.260;2023-12-14T03:30:27;3.87;;;3.27;;
20008;SDS011;10165;42.662;23.260;2023-12-14T03:32:54;4.87;;;3.30;;
20008;SDS011;10165;42.662;23.260;2023-12-14T03:35:20;7.07;;;3.40;;
20008;SDS011;10165;42.662;23.260;2023-12-14T03:37:47;8.70;;;3.43;;
20008;SDS011;10165;42.662;23.260;2023-12-14T03:40:14;5.10;;;3.13;;
20008;SDS011;10165;42.662;23.260;2023-12-14T03:42:41;5.70;;;3.00;;
20008;SDS011;10165;42.662;23.260;2023-12-14T03:45:07;10.40;;;2.73;;
20008;SDS011;10165;42.662;23.260;2023-12-14T03:47:35;3.90;;;3.07;;
20008;SDS011;10165;42.662;23.260;2023-12-14T03:50:02;4.33;;;2.97;;
20008;SDS011;10165;42.662;23.260;2023-12-14T03:52:29;3.53;;;3.23;;
20008;SDS011;10165;42.662;23.260;2023-12-14T03:54:58;3.73;;;2.70;;
20008;SDS011;10165;42.662;23.260;2023-12-14T03:57:24;3.43;;;2.90;;
20008;SDS011;10165;42.662;23.260;2023-12-14T03:59:51;3.40;;;3.07;;
20008;SDS011;10165;42.662;23.260;2023-12-14T04:02:18;3.10;;;2.80;;
20008;SDS011;10165;42.662;23.260;2023-12-14T04:04:44;3.20;;;2.67;;
20008;SDS011;10165;42.662;23.260;2023-12-14T04:07:13;4.73;;;2.67;;
20008;SDS011;10165;42.662;23.260;2023-12-14T04:09:40;5.47;;;3.97;;
20008;SDS011;10165;42.662;23.260;2023-12-14T04:12:07;3.83;;;2.67;;
20008;SDS011;10165;42.662;23.260;2023-12-14T04:14:33;3.43;;;2.57;;
20008;SDS011;10165;42.662;23.260;2023-12-14T04:17:00;3.73;;;2.60;;
20008;SDS011;10165;42.662;23.260;2023-12-14T04:19:27;5.23;;;2.60;;
20008;SDS011;10165;42.662;23.260;2023-12-14T04:21:54;4.13;;;2.23;;
20008;SDS011;10165;42.662;23.260;2023-12-14T04:24:20;5.47;;;2.97;;
20008;SDS011;10165;42.662;23.260;2023-12-14T04:26:48;5.63;;;2.57;;
20008;SDS011;10165;42.662;23.260;2023-12-14T04:29:15;4.03;;;2.57;;
20008;SDS011;10165;42.662;23.260;2023-12-14T04:31:41;4.33;;;2.43;;
20008;SDS011;10165;42.662;23.260;2023-12-14T04:34:08;4.07;;;2.60;;
20008;SDS011;10165;42.662;23.260;2023-12-14T04:36:40;5.63;;;2.53;;
20008;SDS011;10165;42.662;23.260;2023-12-14T04:39:06;7.43;;;3.27;;
20008;SDS011;10165;42.662;23.260;2023-12-14T04:41:34;3.87;;;2.40;;
20008;SDS011;10165;42.662;23.260;2023-12-14T04:44:00;4.83;;;2.47;;
20008;SDS011;10165;42.662;23.260;2023-12-14T04:46:27;5.80;;;2.80;;
20008;SDS011;10165;42.662;23.260;2023-12-14T04:48:54;2.37;;;2.10;;
20008;SDS011;10165;42.662;23.260;2023-12-14T04:51:21;3.70;;;2.67;;
20008;SDS011;10165;42.662;23.260;2023-12-14T04:53:48;4.63;;;2.93;;
20008;SDS011;10165;42.662;23.260;2023-12-14T04:56:14;2.97;;;2.17;;
20008;SDS011;10165;42.662;23.260;2023-12-14T04:58:41;3.40;;;2.67;;
20008;SDS011;10165;42.662;23.260;2023-12-14T05:01:08;3.70;;;2.37;;
20008;SDS011;10165;42.662;23.260;2023-12-14T05:03:35;4.63;;;2.57;;
20008;SDS011;10165;42.662;23.260;2023-12-14T05:06:02;5.00;;;2.57;;
20008;SDS011;10165;42.662;23.260;2023-12-14T05:08:29;4.97;;;2.13;;
20008;SDS011;10165;42.662;23.260;2023-12-14T05:10:56;4.50;;;2.77;;
20008;SDS011;10165;42.662;23.260;2023-12-14T05:13:22;3.37;;;2.50;;
20008;SDS011;10165;42.662;23.260;2023-12-14T05:15:49;4.50;;;2.93;;
20008;SDS011;10165;42.662;23.260;2023-12-14T05:18:18;4.77;;;2.40;;
20008;SDS011;10165;42.662;23.260;2023-12-14T05:20:45;3.30;;;2.60;;
20008;SDS011;10165;42.662;23.260;2023-12-14T05:23:12;4.27;;;2.97;;
20008;SDS011;10165;42.662;23.260;2023-12-14T05:25:39;3.87;;;2.60;;
20008;SDS011;10165;42.662;23.260;2023-12-14T05:28:06;4.03;;;2.87;;
20008;SDS011;10165;42.662;23.260;2023-12-14T05:30:32;4.87;;;3.00;;
20008;SDS011;10165;42.662;23.260;2023-12-14T05:32:59;3.47;;;3.00;;
20008;SDS011;10165;42.662;23.260;2023-12-14T05:35:26;3.87;;;3.27;;
20008;SDS011;10165;42.662;23.260;2023-12-14T05:37:52;4.87;;;3.37;;
20008;SDS011;10165;42.662;23.260;2023-12-14T05:40:19;6.60;;;3.00;;
20008;SDS011;10165;42.662;23.260;2023-12-14T05:42:46;4.90;;;3.57;;
20008;SDS011;10165;42.662;23.260;2023-12-14T05:45:13;5.57;;;3.17;;
20008;SDS011;10165;42.662;23.260;2023-12-14T05:47:39;4.00;;;2.60;;
20008;SDS011;10165;42.662;23.260;2023-12-14T05:50:08;4.87;;;3.47;;
20008;SDS011;10165;42.662;23.260;2023-12-14T05:52:37;4.03;;;2.97;;
20008;SDS011;10165;42.662;23.260;2023-12-14T05:55:04;4.00;;;2.77;;
20008;SDS011;10165;42.662;23.260;2023-12-14T05:57:33;4.07;;;2.80;;
20008;SDS011;10165;42.662;23.260;2023-12-14T06:00:00;4.97;;;2.97;;
20008;SDS011;10165;42.662;23.260;2023-12-14T06:02:28;5.63;;;2.67;;
20008;SDS011;10165;42.662;23.260;2023-12-14T06:04:54;2.93;;;2.73;;
20008;SDS011;10165;42.662;23.260;2023-12-14T06:07:23;5.37;;;2.77;;
20008;SDS011;10165;42.662;23.260;2023-12-14T06:09:50;3.37;;;2.60;;
20008;SDS011;10165;42.662;23.260;2023-12-14T06:12:17;5.00;;;2.93;;
20008;SDS011;10165;42.662;23.260;2023-12-14T06:14:44;7.07;;;2.90;;
20008;SDS011;10165;42.662;23.260;2023-12-14T06:17:11;4.70;;;2.93;;
20008;SDS011;10165;42.662;23.260;2023-12-14T06:19:38;5.53;;;3.47;;
20008;SDS011;10165;42.662;23.260;2023-12-14T06:22:05;11.03;;;5.43;;
20008;SDS011;10165;42.662;23.260;2023-12-14T06:24:31;9.83;;;5.30;;
20008;SDS011;10165;42.662;23.260;2023-12-14T06:26:58;6.70;;;3.77;;
20008;SDS011;10165;42.662;23.260;2023-12-14T06:29:25;5.53;;;3.83;;
20008;SDS011;10165;42.662;23.260;2023-12-14T06:31:51;9.63;;;3.73;;
20008;SDS011;10165;42.662;23.260;2023-12-14T06:34:18;6.13;;;4.03;;
20008;SDS011;10165;42.662;23.260;2023-12-14T06:36:45;6.37;;;3.70;;
20008;SDS011;10165;42.662;23.260;2023-12-14T06:39:12;7.43;;;3.63;;
20008;SDS011;10165;42.662;23.260;2023-12-14T06:41:39;6.43;;;3.97;;
20008;SDS011;10165;42.662;23.260;2023-12-14T06:44:05;6.30;;;2.90;;
20008;SDS011;10165;42.662;23.260;2023-12-14T06:46:32;5.17;;;3.60;;
20008;SDS011;10165;42.662;23.260;2023-12-14T06:48:59;6.47;;;4.20;;
20008;SDS011;10165;42.662;23.260;2023-12-14T06:51:26;5.23;;;3.03;;
20008;SDS011;10165;42.662;23.260;2023-12-14T06:53:53;5.57;;;3.43;;
20008;SDS011;10165;42.662;23.260;2023-12-14T06:56:20;6.03;;;4.13;;
20008;SDS011;10165;42.662;23.260;2023-12-14T06:58:46;4.97;;;3.80;;
20008;SDS011;10165;42.662;23.260;2023-12-14T07:01:16;10.40;;;3.47;;
20008;SDS011;10165;42.662;23.260;2023-12-14T07:03:44;5.07;;;3.27;;
20008;SDS011;10165;42.662;23.260;2023-12-14T07:06:14;8.73;;;3.83;;
20008;SDS011;10165;42.662;23.260;2023-12-14T07:08:42;6.67;;;3.70;;
20008;SDS011;10165;42.662;23.260;2023-12-14T07:11:09;7.33;;;3.17;;
20008;SDS011;10165;42.662;23.260;2023-12-14T07:13:37;7.30;;;3.93;;
20008;SDS011;10165;42.662;23.260;2023-12-14T07:16:05;13.30;;;5.03;;
20008;SDS011;10165;42.662;23.260;2023-12-14T07:18:34;18.80;;;8.93;;
20008;SDS011;10165;42.662;23.260;2023-12-14T07:21:02;6.53;;;3.80;;
20008;SDS011;10165;42.662;23.260;2023-12-14T07:23:30;19.97;;;8.80;;
20008;SDS011;10165;42.662;23.260;2023-12-14T07:25:57;22.53;;;9.47;;
20008;SDS011;10165;42.662;23.260;2023-12-14T07:28:28;17.97;;;8.50;;
20008;SDS011;10165;42.662;23.260;2023-12-14T07:30:56;139.60;;;45.60;;
20008;SDS011;10165;42.662;23.260;2023-12-14T07:33:23;83.83;;;30.70;;
20008;SDS011;10165;42.662;23.260;2023-12-14T07:35:49;120.87;;;42.37;;
20008;SDS011;10165;42.662;23.260;2023-12-14T07:38:16;34.00;;;14.20;;
20008;SDS011;10165;42.662;23.260;2023-12-14T07:40:43;30.27;;;11.67;;
20008;SDS011;10165;42.662;23.260;2023-12-14T07:43:11;21.97;;;9.23;;
20008;SDS011;10165;42.662;23.260;2023-12-14T07:45:38;26.70;;;11.37;;
20008;SDS011;10165;42.662;23.260;2023-12-14T07:48:04;77.20;;;32.37;;
20008;SDS011;10165;42.662;23.260;2023-12-14T07:50:31;81.63;;;31.93;;
20008;SDS011;10165;42.662;23.260;2023-12-14T07:52:58;51.10;;;21.53;;
20008;SDS011;10165;42.662;23.260;2023-12-14T07:55:25;28.93;;;11.50;;
20008;SDS011;10165;42.662;23.260;2023-12-14T07:57:52;5.97;;;3.70;;
20008;SDS011;10165;42.662;23.260;2023-12-14T08:00:19;18.20;;;8.43;;
20008;SDS011;10165;42.662;23.260;2023-12-14T08:02:45;10.03;;;4.90;;
20008;SDS011;10165;42.662;23.260;2023-12-14T08:05:12;15.00;;;6.87;;
20008;SDS011;10165;42.662;23.260;2023-12-14T08:07:39;23.57;;;7.00;;
20008;SDS011;10165;42.662;23.260;2023-12-14T08:10:06;7.13;;;3.53;;
20008;SDS011;10165;42.662;23.260;2023-12-14T08:12:33;9.87;;;4.47;;
20008;SDS011;10165;42.662;23.260;2023-12-14T08:15:00;3.93;;;2.60;;
20008;SDS011;10165;42.662;23.260;2023-12-14T08:17:27;4.47;;;2.90;;
20008;SDS011;10165;42.662;23.260;2023-12-14T08:19:54;6.23;;;3.97;;
20008;SDS011;10165;42.662;23.260;2023-12-14T08:22:21;40.00;;;13.23;;
20008;SDS011;10165;42.662;23.260;2023-12-14T08:24:48;81.70;;;23.60;;
20008;SDS011;10165;42.662;23.260;2023-12-14T08:27:15;50.43;;;16.97;;
20008;SDS011;10165;42.662;23.260;2023-12-14T08:29:42;22.50;;;9.23;;
20008;SDS011;10165;42.662;23.260;2023-12-14T08:32:11;11.57;;;5.07;;
20008;SDS011;10165;42.662;23.260;2023-12-14T08:34:40;27.77;;;9.00;;
20008;SDS011;10165;42.662;23.260;2023-12-14T08:37:07;7.30;;;2.47;;
20008;SDS011;10165;42.662;23.260;2023-12-14T08:39:34;19.23;;;7.73;;
20008;SDS011;10165;42.662;23.260;2023-12-14T08:42:01;8.20;;;2.73;;
20008;SDS011;10165;42.662;23.260;2023-12-14T08:44:27;9.10;;;3.00;;
20008;SDS011;10165;42.662;23.260;2023-12-14T08:46:54;4.43;;;2.60;;
20008;SDS011;10165;42.662;23.260;2023-12-14T08:49:21;18.63;;;7.63;;
20008;SDS011;10165;42.662;23.260;2023-12-14T08:51:50;5.43;;;3.33;;
20008;SDS011;10165;42.662;23.260;2023-12-14T08:54:16;7.23;;;3.57;;
20008;SDS011;10165;42.662;23.260;2023-12-14T08:56:44;4.83;;;3.53;;
20008;SDS011;10165;42.662;23.260;2023-12-14T08:59:10;5.50;;;3.50;;
20008;SDS011;10165;42.662;23.260;2023-12-14T09:01:38;11.47;;;4.03;;
20008;SDS011;10165;42.662;23.260;2023-12-14T09:04:05;14.87;;;4.83;;
20008;SDS011;10165;42.662;23.260;2023-12-14T09:06:32;4.67;;;2.93;;
20008;SDS011;10165;42.662;23.260;2023-12-14T09:08:59;16.77;;;5.67;;
20008;SDS011;10165;42.662;23.260;2023-12-14T09:11:26;3.53;;;2.73;;
20008;SDS011;10165;42.662;23.260;2023-12-14T09:13:53;4.60;;;3.13;;
20008;SDS011;10165;42.662;23.260;2023-12-14T09:16:20;5.20;;;3.67;;
20008;SDS011;10165;42.662;23.260;2023-12-14T09:18:47;8.20;;;4.23;;
20008;SDS011;10165;42.662;23.260;2023-12-14T09:21:14;5.43;;;2.47;;
20008;SDS011;10165;42.662;23.260;2023-12-14T09:23:41;7.73;;;3.77;;
20008;SDS011;10165;42.662;23.260;2023-12-14T09:26:09;6.30;;;3.73;;
20008;SDS011;10165;42.662;23.260;2023-12-14T09:28:37;7.83;;;5.17;;
20008;SDS011;10165;42.662;23.260;2023-12-14T09:31:04;5.03;;;3.90;;
20008;SDS011;10165;42.662;23.260;2023-12-14T09:33:34;4.73;;;3.07;;
20008;SDS011;10165;42.662;23.260;2023-12-14T09:36:01;6.37;;;2.80;;
20008;SDS011;10165;42.662;23.260;2023-12-14T09:38:28;7.63;;;3.80;;
20008;SDS011;10165;42.662;23.260;2023-12-14T09:40:54;5.90;;;3.00;;
20008;SDS011;10165;42.662;23.260;2023-12-14T09:43:21;8.07;;;3.43;;
20008;SDS011;10165;42.662;23.260;2023-12-14T09:45:49;8.10;;;4.40;;
20008;SDS011;10165;42.662;23.260;2023-12-14T09:48:17;4.57;;;3.43;;
20008;SDS011;10165;42.662;23.260;2023-12-14T09:50:44;8.90;;;4.07;;
20008;SDS011;10165;42.662;23.260;2023-12-14T09:53:12;9.67;;;4.30;;
20008;SDS011;10165;42.662;23.260;2023-12-14T09:55:40;9.00;;;3.70;;
20008;SDS011;10165;42.662;23.260;2023-12-14T09:58:06;11.30;;;3.30;;
20008;SDS011;10165;42.662;23.260;2023-12-14T10:00:39;4.97;;;3.10;;
20008;SDS011;10165;42.662;23.260;2023-12-14T10:05:49;11.10;;;4.70;;
20008;SDS011;10165;42.662;23.260;2023-12-14T10:08:17;10.70;;;5.17;;
20008;SDS011;10165;42.662;23.260;2023-12-14T10:10:46;14.80;;;5.20;;
20008;SDS011;10165;42.662;23.260;2023-12-14T10:13:20;11.10;;;6.07;;
20008;SDS011;10165;42.662;23.260;2023-12-14T10:15:48;9.40;;;4.20;;
20008;SDS011;10165;42.662;23.260;2023-12-14T10:18:22;10.43;;;5.20;;
20008;SDS011;10165;42.662;23.260;2023-12-14T10:20:56;11.43;;;4.53;;
20008;SDS011;10165;42.662;23.260;2023-12-14T10:23:23;11.97;;;4.53;;
20008;SDS011;10165;42.662;23.260;2023-12-14T10:25:51;9.53;;;4.90;;
20008;SDS011;10165;42.662;23.260;2023-12-14T10:28:19;12.57;;;3.67;;
20008;SDS011;10165;42.662;23.260;2023-12-14T10:30:46;10.83;;;4.43;;
20008;SDS011;10165;42.662;23.260;2023-12-14T10:33:14;10.93;;;3.80;;
20008;SDS011;10165;42.662;23.260;2023-12-14T10:35:42;8.30;;;4.13;;
20008;SDS011;10165;42.662;23.260;2023-12-14T10:38:12;7.90;;;4.77;;
20008;SDS011;10165;42.662;23.260;2023-12-14T10:40:42;10.23;;;5.37;;
20008;SDS011;10165;42.662;23.260;2023-12-14T10:43:11;15.43;;;6.17;;
20008;SDS011;10165;42.662;23.260;2023-12-14T10:45:42;10.47;;;6.40;;
20008;SDS011;10165;42.662;23.260;2023-12-14T10:48:10;9.37;;;5.30;;
20008;SDS011;10165;42.662;23.260;2023-12-14T10:50:42;6.87;;;4.80;;
20008;SDS011;10165;42.662;23.260;2023-12-14T10:53:09;9.27;;;4.77;;
20008;SDS011;10165;42.662;23.260;2023-12-14T10:55:37;8.60;;;5.33;;
20008;SDS011;10165;42.662;23.260;2023-12-14T10:58:07;8.97;;;5.60;;
20008;SDS011;10165;42.662;23.260;2023-12-14T11:00:37;8.73;;;4.87;;
20008;SDS011;10165;42.662;23.260;2023-12-14T11:03:05;7.60;;;4.33;;
20008;SDS011;10165;42.662;23.260;2023-12-14T11:05:32;7.60;;;5.40;;
20008;SDS011;10165;42.662;23.260;2023-12-14T11:08:02;10.57;;;5.33;;
20008;SDS011;10165;42.662;23.260;2023-12-14T11:10:36;12.43;;;5.13;;
20008;SDS011;10165;42.662;23.260;2023-12-14T11:13:08;9.67;;;4.93;;
20008;SDS011;10165;42.662;23.260;2023-12-14T11:15:48;5.67;;;3.00;;
20008;SDS011;10165;42.662;23.260;2023-12-14T11:18:19;5.03;;;2.43;;
20008;SDS011;10165;42.662;23.260;2023-12-14T11:20:48;6.17;;;2.37;;
20008;SDS011;10165;42.662;23.260;2023-12-14T11:23:17;2.53;;;1.90;;
20008;SDS011;10165;42.662;23.260;2023-12-14T11:26:05;3.00;;;1.73;;
20008;SDS011;10165;42.662;23.260;2023-12-14T11:28:38;3.00;;;2.23;;
20008;SDS011;10165;42.662;23.260;2023-12-14T11:31:10;2.20;;;1.93;;
20008;SDS011;10165;42.662;23.260;2023-12-14T11:33:38;3.33;;;2.13;;
20008;SDS011;10165;42.662;23.260;2023-12-14T11:36:11;6.33;;;2.53;;
20008;SDS011;10165;42.662;23.260;2023-12-14T11:38:39;2.73;;;1.53;;
20008;SDS011;10165;42.662;23.260;2023-12-14T11:41:06;2.27;;;1.70;;
20008;SDS011;10165;42.662;23.260;2023-12-14T11:43:40;12.27;;;1.87;;
20008;SDS011;10165;42.662;23.260;2023-12-14T11:46:08;2.10;;;1.67;;
20008;SDS011;10165;42.662;23.260;2023-12-14T11:48:36;3.30;;;1.43;;
20008;SDS011;10165;42.662;23.260;2023-12-14T11:51:02;2.53;;;1.57;;
20008;SDS011;10165;42.662;23.260;2023-12-14T11:53:30;1.50;;;1.40;;
20008;SDS011;10165;42.662;23.260;2023-12-14T11:55:57;1.33;;;1.10;;
20008;SDS011;10165;42.662;23.260;2023-12-14T11:58:27;1.37;;;1.10;;
20008;SDS011;10165;42.662;23.260;2023-12-14T12:00:54;1.40;;;1.30;;
20008;SDS011;10165;42.662;23.260;2023-12-14T12:03:22;3.97;;;1.03;;
20008;SDS011;10165;42.662;23.260;2023-12-14T12:05:49;1.23;;;0.90;;
20008;SDS011;10165;42.662;23.260;2023-12-14T12:08:19;0.67;;;0.67;;
20008;SDS011;10165;42.662;23.260;2023-12-14T12:10:47;2.40;;;0.97;;
20008;SDS011;10165;42.662;23.260;2023-12-14T12:13:17;1.77;;;1.10;;
20008;SDS011;10165;42.662;23.260;2023-12-14T12:15:46;1.37;;;1.20;;
20008;SDS011;10165;42.662;23.260;2023-12-14T12:18:14;1.20;;;0.70;;
20008;SDS011;10165;42.662;23.260;2023-12-14T12:20:43;1.60;;;1.20;;
20008;SDS011;10165;42.662;23.260;2023-12-14T12:23:11;1.70;;;1.50;;
20008;SDS011;10165;42.662;23.260;2023-12-14T12:25:38;0.90;;;0.90;;
20008;SDS011;10165;42.662;23.260;2023-12-14T12:28:04;1.77;;;1.30;;
20008;SDS011;10165;42.662;23.260;2023-12-14T12:30:31;0.60;;;0.60;;
20008;SDS011;10165;42.662;23.260;2023-12-14T12:32:58;0.60;;;0.60;;
20008;SDS011;10165;42.662;23.260;2023-12-14T12:35:25;1.03;;;0.90;;
20008;SDS011;10165;42.662;23.260;2023-12-14T12:37:53;0.50;;;0.50;;
20008;SDS011;10165;42.662;23.260;2023-12-14T12:40:23;1.30;;;1.20;;
20008;SDS011;10165;42.662;23.260;2023-12-14T12:42:53;1.20;;;1.10;;
20008;SDS011;10165;42.662;23.260;2023-12-14T12:45:20;0.90;;;0.90;;
20008;SDS011;10165;42.662;23.260;2023-12-14T12:47:52;0.77;;;0.70;;
20008;SDS011;10165;42.662;23.260;2023-12-14T12:50:19;1.73;;;1.00;;
20008;SDS011;10165;42.662;23.260;2023-12-14T12:52:49;0.60;;;0.60;;
20008;SDS011;10165;42.662;23.260;2023-12-14T12:55:17;0.77;;;0.77;;
20008;SDS011;10165;42.662;23.260;2023-12-14T12:57:44;0.57;;;0.57;;
20008;SDS011;10165;42.662;23.260;2023-12-14T13:00:11;0.30;;;0.30;;
20008;SDS011;10165;42.662;23.260;2023-12-14T13:02:39;0.60;;;0.60;;
20008;SDS011;10165;42.662;23.260;2023-12-14T13:05:07;0.97;;;0.80;;
20008;SDS011;10165;42.662;23.260;2023-12-14T13:07:38;0.50;;;0.47;;
20008;SDS011;10165;42.662;23.260;2023-12-14T13:10:05;0.50;;;0.50;;
20008;SDS011;10165;42.662;23.260;2023-12-14T13:12:50;0.57;;;0.57;;
20008;SDS011;10165;42.662;23.260;2023-12-14T13:15:17;0.50;;;0.50;;
20008;SDS011;10165;42.662;23.260;2023-12-14T13:17:45;1.10;;;1.00;;
20008;SDS011;10165;42.662;23.260;2023-12-14T13:20:12;0.80;;;0.80;;
20008;SDS011;10165;42.662;23.260;2023-12-14T13:22:39;0.60;;;0.60;;
20008;SDS011;10165;42.662;23.260;2023-12-14T13:25:06;0.30;;;0.30;;
20008;SDS011;10165;42.662;23.260;2023-12-14T13:27:34;0.30;;;0.30;;
20008;SDS011;10165;42.662;23.260;2023-12-14T13:30:03;0.60;;;0.60;;
20008;SDS011;10165;42.662;23.260;2023-12-14T13:32:32;0.50;;;0.50;;
20008;SDS011;10165;42.662;23.260;2023-12-14T13:34:59;0.93;;;0.80;;
20008;SDS011;10165;42.662;23.260;2023-12-14T13:37:26;0.63;;;0.60;;
20008;SDS011;10165;42.662;23.260;2023-12-14T13:39:53;0.77;;;0.70;;
20008;SDS011;10165;42.662;23.260;2023-12-14T13:42:20;1.67;;;1.17;;
20008;SDS011;10165;42.662;23.260;2023-12-14T13:44:47;0.80;;;0.80;;
20008;SDS011;10165;42.662;23.260;2023-12-14T13:47:14;1.10;;;1.00;;
20008;SDS011;10165;42.662;23.260;2023-12-14T13:49:42;0.53;;;0.53;;
20008;SDS011;10165;42.662;23.260;2023-12-14T13:52:09;0.80;;;0.80;;
20008;SDS011;10165;42.662;23.260;2023-12-14T13:54:35;1.77;;;0.90;;
20008;SDS011;10165;42.662;23.260;2023-12-14T13:57:03;0.80;;;0.80;;
20008;SDS011;10165;42.662;23.260;2023-12-14T13:59:30;1.20;;;0.93;;
20008;SDS011;10165;42.662;23.260;2023-12-14T14:01:58;0.50;;;0.50;;
20008;SDS011;10165;42.662;23.260;2023-12-14T14:04:25;1.90;;;0.60;;
20008;SDS011;10165;42.662;23.260;2023-12-14T14:06:53;0.80;;;0.80;;
20008;SDS011;10165;42.662;23.260;2023-12-14T14:09:20;0.57;;;0.57;;
20008;SDS011;10165;42.662;23.260;2023-12-14T14:11:47;2.07;;;1.80;;
20008;SDS011;10165;42.662;23.260;2023-12-14T14:14:16;1.13;;;1.13;;
20008;SDS011;10165;42.662;23.260;2023-12-14T14:16:44;3.47;;;2.60;;
20008;SDS011;10165;42.662;23.260;2023-12-14T14:19:11;4.67;;;2.47;;
20008;SDS011;10165;42.662;23.260;2023-12-14T14:21:37;4.33;;;2.10;;
20008;SDS011;10165;42.662;23.260;2023-12-14T14:24:06;3.00;;;1.97;;
20008;SDS011;10165;42.662;23.260;2023-12-14T14:26:33;2.60;;;1.57;;
20008;SDS011;10165;42.662;23.260;2023-12-14T14:29:00;4.67;;;2.40;;
20008;SDS011;10165;42.662;23.260;2023-12-14T14:31:29;7.60;;;6.23;;
20008;SDS011;10165;42.662;23.260;2023-12-14T14:33:59;6.70;;;3.10;;
20008;SDS011;10165;42.662;23.260;2023-12-14T14:36:32;26.50;;;10.63;;